Hovedside
METAR-TAF:

METAR-TAF

Lufthavner :

Björneborg, Finland

Björneborg lufthavn

breddegrad: 61-28N, lengdegrad: 021-48E, høyde over havet: 13 m

Gjeldene værobservasjon

Denne rapporten ble laget for 38 minutter siden, klokken 21:20 UTC
Vind 5 kt fra Sørøst
Temperatur 15°C
Luftfuktighet 94%
Trykk 1010 hPa
Sikt 10 km eller mer

METAR: EFPO 182120Z AUTO 14005KT 9999 SCT011/// OVC013/// 15/14 Q1010

Tid: 00:58 (21:58 UTC)

Varsel

Denne rapporten ble laget for 4 timer og 0 minutter siden, klokken 17:58 UTC
Varsel gyldig fra 18. klokken 18 UTC til 18. klokken 22 UTC
Vind 3 kt fra Sør-sørøst
Sikt 10 km eller mer
Brutte skyer i en høyde av 3000 ft
lett regn
Midlertidig
fra 18. klokken 18 UTC til 18. klokken 20 UTC
Sikt: 5000 m
Brutte skyer i en høyde av 700 ft
lett duskregn
Blir
fra 18. klokken 20 UTC til 18. klokken 22 UTC
Sikt: 3000 m
Brutte skyer i en høyde av 400 ft
dis

TAF: EFPO 181758Z 1818/1822 16003KT 9999 -RA BKN030 TEMPO 1818/1820 5000 -DZ BKN007 BECMG 1820/1822 3000 BR BKN004

Værobservasjoner og værvarsel for over 4000 flyplasser (METAR- og TAF-rapporter).

Tilgjengelige stasjoner er representert av de røde og gule prikkene på kartet.

Hold musepekeren over prikken for å se navnet på stasjonen.

Klikk så for å se værobservasjoner og -varsler.

For å forandre kartet kan du klikke på den grønne knappen med svart kryss for å zoome inn, på den grønne knappen med strek for å zoome ut, eller på de grønne pilene for å se tilstøtende kart.


METAR-TAF: